Time;durP1;ratioP1;P1;durP2;ratioP2;P2;SDS_P1;SDS_P2;PMS_P1;PMS_P2;Temp;Humidity;BMP_temperature;BMP_pressure;BME280_temperature;BME280_humidity;BME280_pressure;Samples;Min_cycle;Max_cycle;Signal;HPM_P1;HPM_P2
2023/08/29 00:01:13;;;;;;;1.80;0.60;;;;;;;16.89;98.38;100142.84;5218889;28;20029;-76
2023/08/29 00:03:45;;;;;;;1.42;0.68;;;;;;;16.93;99.49;100119.69;5229833;28;20029;-77
2023/08/29 00:06:15;;;;;;;3.92;0.88;;;;;;;16.97;98.66;100119.41;5219989;28;20608;-77
2023/08/29 00:08:45;;;;;;;2.42;0.90;;;;;;;16.93;99.64;100114.41;5222306;28;20033;-77
2023/08/29 00:11:16;;;;;;;4.30;1.08;;;;;;;16.91;99.24;100118.97;5216114;28;20031;-77
2023/08/29 00:13:47;;;;;;;1.85;0.80;;;;;;;16.84;99.47;100130.91;5216913;28;20206;-76
2023/08/29 00:16:17;;;;;;;4.43;1.08;;;;;;;16.78;99.54;100132.16;5219848;28;20120;-76
2023/08/29 00:18:47;;;;;;;3.30;0.82;;;;;;;16.85;100.00;100143.16;5220741;28;20029;-73
2023/08/29 00:21:18;;;;;;;2.28;0.93;;;;;;;16.79;100.00;100143.59;5218731;28;20119;-76
2023/08/29 00:23:48;;;;;;;2.42;0.90;;;;;;;16.70;100.00;100170.56;5219717;28;20017;-74
2023/08/29 00:26:18;;;;;;;0.75;0.47;;;;;;;16.70;100.00;100175.84;5224396;28;20033;-77
2023/08/29 00:28:49;;;;;;;1.52;0.80;;;;;;;16.54;100.00;100154.06;5214444;28;20025;-75
2023/08/29 00:31:20;;;;;;;1.42;0.60;;;;;;;16.35;100.00;100143.06;5219230;28;20028;-76
2023/08/29 00:33:51;;;;;;;2.08;0.90;;;;;;;16.51;100.00;100146.38;5215814;28;20556;-76
2023/08/29 00:36:21;;;;;;;1.42;0.70;;;;;;;16.47;100.00;100154.56;5217189;28;20029;-76
2023/08/29 00:38:52;;;;;;;3.55;0.77;;;;;;;16.43;100.00;100147.81;5219317;28;20074;-77
2023/08/29 00:41:22;;;;;;;3.35;0.98;;;;;;;16.45;100.00;100145.94;5216241;28;20028;-77
2023/08/29 00:43:52;;;;;;;2.70;0.90;;;;;;;16.51;100.00;100151.66;5217918;28;20017;-77
2023/08/29 00:46:24;;;;;;;1.60;0.63;;;;;;;16.47;100.00;100167.78;5218846;28;20032;-76
2023/08/29 00:48:55;;;;;;;2.42;0.90;;;;;;;16.53;100.00;100162.94;5226477;28;20124;-76
2023/08/29 00:51:25;;;;;;;1.83;0.85;;;;;;;16.49;100.00;100171.16;5213318;28;20112;-74
2023/08/29 00:53:55;;;;;;;3.53;0.90;;;;;;;16.45;100.00;100169.66;5219387;28;20461;-77
2023/08/29 00:56:26;;;;;;;2.13;0.80;;;;;;;16.45;100.00;100173.16;5212835;28;20033;-73
2023/08/29 00:58:56;;;;;;;2.38;0.80;;;;;;;16.50;100.00;100172.84;5220411;28;20459;-74
2023/08/29 01:01:28;;;;;;;3.13;0.90;;;;;;;16.28;100.00;100178.66;5226288;28;20052;-73
2023/08/29 01:03:59;;;;;;;1.27;0.75;;;;;;;16.22;100.00;100168.50;5226030;28;20024;-76
2023/08/29 01:06:33;;;;;;;3.05;0.60;;;;;;;16.26;100.00;100172.66;5222054;28;20021;-76
2023/08/29 01:09:06;;;;;;;1.77;0.70;;;;;;;16.22;100.00;100170.31;5216406;28;20047;-76
2023/08/29 01:11:54;;;;;;;3.10;0.80;;;;;;;16.16;100.00;100176.81;5237815;22;20049;-72
2023/08/29 01:14:53;;;;;;;2.55;0.75;;;;;;;15.95;100.00;100177.34;5234298;28;20037;-72
2023/08/29 01:17:38;;;;;;;2.13;0.90;;;;;;;16.09;100.00;100177.31;5230973;28;20475;-71
2023/08/29 01:20:09;;;;;;;3.33;0.90;;;;;;;16.05;100.00;100174.00;5235450;28;20079;-71
2023/08/29 01:23:12;;;;;;;1.20;0.75;;;;;;;16.04;100.00;100182.03;5224276;28;20022;-72
2023/08/29 01:25:53;;;;;;;3.20;0.70;;;;;;;16.03;100.00;100181.19;5216073;28;20032;-72
2023/08/29 01:28:24;;;;;;;0.93;0.60;;;;;;;15.89;100.00;100181.19;5216790;28;20025;-72
2023/08/29 01:30:55;;;;;;;2.05;0.82;;;;;;;15.81;100.00;100178.22;5211609;28;20032;-71
2023/08/29 01:33:27;;;;;;;1.95;0.88;;;;;;;15.76;100.00;100177.66;5224148;28;20071;-72
2023/08/29 01:35:57;;;;;;;6.53;1.40;;;;;;;15.90;100.00;100177.63;5222339;28;20104;-71
2023/08/29 01:38:27;;;;;;;2.95;0.70;;;;;;;15.94;100.00;100181.78;5221442;28;20151;-71
2023/08/29 01:40:58;;;;;;;2.80;1.00;;;;;;;15.85;100.00;100174.44;5226823;28;20501;-72
2023/08/29 01:43:28;;;;;;;4.63;0.90;;;;;;;15.98;100.00;100170.09;5224763;28;20026;-72
2023/08/29 01:45:58;;;;;;;2.97;0.82;;;;;;;16.15;100.00;100182.16;5218003;28;20024;-72
2023/08/29 01:48:31;;;;;;;2.40;0.95;;;;;;;16.09;100.00;100188.72;5217144;28;20096;-72
2023/08/29 01:51:02;;;;;;;4.38;1.48;;;;;;;16.02;100.00;100191.84;5223908;28;20039;-70
2023/08/29 01:53:32;;;;;;;3.30;0.90;;;;;;;15.88;100.00;100194.50;5220338;28;20020;-71
2023/08/29 01:56:03;;;;;;;1.70;0.82;;;;;;;15.94;100.00;100191.47;5221144;28;20282;-71
2023/08/29 01:58:36;;;;;;;1.80;0.90;;;;;;;16.02;100.00;100171.56;5212477;28;20088;-72
2023/08/29 02:01:06;;;;;;;2.85;1.10;;;;;;;16.08;100.00;100187.00;5212343;28;20026;-72
2023/08/29 02:03:36;;;;;;;3.60;0.88;;;;;;;15.99;100.00;100187.59;5210751;28;20025;-72
2023/08/29 02:06:07;;;;;;;1.83;0.80;;;;;;;16.05;100.00;100194.28;5213942;28;20472;-72
2023/08/29 02:08:37;;;;;;;4.43;1.08;;;;;;;16.04;100.00;100184.69;5220351;28;20028;-72
2023/08/29 02:11:08;;;;;;;1.65;0.90;;;;;;;16.00;100.00;100178.75;5222529;28;20399;-72
2023/08/29 02:13:38;;;;;;;2.50;0.88;;;;;;;16.10;100.00;100173.72;5213960;28;20212;-72
2023/08/29 02:16:08;;;;;;;2.13;0.80;;;;;;;15.98;100.00;100172.72;5217306;28;20036;-72
2023/08/29 02:18:39;;;;;;;2.85;1.00;;;;;;;16.18;100.00;100174.91;5218861;28;20052;-72
2023/08/29 02:21:09;;;;;;;2.47;1.10;;;;;;;16.18;100.00;100169.66;5214269;28;20075;-72
2023/08/29 02:23:39;;;;;;;3.88;1.10;;;;;;;16.23;100.00;100170.19;5214641;28;20040;-72
2023/08/29 02:26:10;;;;;;;3.95;1.00;;;;;;;16.07;100.00;100158.09;5218242;28;20059;-71
2023/08/29 02:28:40;;;;;;;4.00;1.10;;;;;;;16.31;100.00;100164.41;5214223;28;20025;-72
2023/08/29 02:31:10;;;;;;;1.73;0.90;;;;;;;16.15;100.00;100156.66;5213358;28;20478;-71
2023/08/29 02:33:41;;;;;;;3.25;0.80;;;;;;;16.13;100.00;100169.09;5218757;28;20103;-72
2023/08/29 02:36:12;;;;;;;1.65;0.95;;;;;;;16.22;100.00;100163.22;5220435;28;20020;-71
2023/08/29 02:38:43;;;;;;;2.08;0.98;;;;;;;16.19;100.00;100165.22;5217117;28;20025;-71
2023/08/29 02:41:13;;;;;;;3.10;1.08;;;;;;;16.19;100.00;100160.78;5215611;28;20028;-72
2023/08/29 02:43:43;;;;;;;2.25;0.90;;;;;;;16.27;100.00;100155.88;5211728;28;20032;-72
2023/08/29 02:46:14;;;;;;;3.17;1.20;;;;;;;16.15;100.00;100156.66;5216061;28;20279;-72
2023/08/29 02:48:44;;;;;;;1.75;1.00;;;;;;;15.97;100.00;100147.31;5214604;28;20043;-71
2023/08/29 02:51:14;;;;;;;4.07;1.15;;;;;;;16.16;100.00;100147.81;5216427;28;20020;-71
2023/08/29 02:53:44;;;;;;;3.38;1.00;;;;;;;16.17;100.00;100140.72;5222420;28;20028;-72
2023/08/29 02:56:15;;;;;;;1.92;0.93;;;;;;;16.22;100.00;100146.56;5218529;28;20051;-72
2023/08/29 02:58:46;;;;;;;2.75;1.13;;;;;;;15.98;100.00;100151.63;5215640;28;20067;-72
2023/08/29 03:01:17;;;;;;;3.83;1.10;;;;;;;16.12;100.00;100151.59;5222580;28;20485;-72
2023/08/29 03:03:47;;;;;;;1.77;1.10;;;;;;;16.07;100.00;100153.66;5214612;28;20025;-71
2023/08/29 03:06:18;;;;;;;3.13;1.10;;;;;;;16.09;100.00;100158.84;5214865;28;20028;-72
2023/08/29 03:08:48;;;;;;;2.00;1.00;;;;;;;16.05;100.00;100150.28;5202910;28;20027;-71
2023/08/29 03:11:18;;;;;;;4.60;1.40;;;;;;;16.02;100.00;100142.56;5215531;28;20082;-72
2023/08/29 03:13:49;;;;;;;3.08;1.10;;;;;;;16.08;100.00;100143.97;5222847;28;20075;-70
2023/08/29 03:16:19;;;;;;;6.53;1.17;;;;;;;16.05;100.00;100141.53;5215267;28;20077;-71
2023/08/29 03:18:50;;;;;;;3.10;1.08;;;;;;;16.04;100.00;100143.31;5216980;28;20059;-71
2023/08/29 03:21:20;;;;;;;1.98;1.23;;;;;;;16.07;100.00;100132.56;5214600;28;20471;-72
2023/08/29 03:23:50;;;;;;;3.38;1.20;;;;;;;15.98;100.00;100138.44;5213740;28;20056;-72
2023/08/29 03:26:21;;;;;;;1.77;0.98;;;;;;;16.05;100.00;100144.19;5221310;28;20025;-72
2023/08/29 03:28:51;;;;;;;2.28;0.93;;;;;;;15.93;100.00;100147.59;5224019;28;20029;-72
2023/08/29 03:31:21;;;;;;;3.33;1.13;;;;;;;15.91;100.00;100145.03;5218490;28;20025;-71
2023/08/29 03:33:51;;;;;;;2.30;1.33;;;;;;;15.91;100.00;100139.78;5214731;28;20086;-72
2023/08/29 03:36:22;;;;;;;5.68;1.33;;;;;;;15.94;100.00;100136.97;5215964;28;22338;-72
2023/08/29 03:38:52;;;;;;;2.20;1.20;;;;;;;15.87;100.00;100133.00;5218770;28;20059;-72
2023/08/29 03:41:22;;;;;;;2.50;1.25;;;;;;;15.80;100.00;100129.09;5210561;28;20060;-72
2023/08/29 03:43:53;;;;;;;2.75;1.17;;;;;;;15.68;100.00;100127.22;5223319;28;20028;-71
2023/08/29 03:46:23;;;;;;;4.70;1.23;;;;;;;15.87;100.00;100124.28;5227437;28;20029;-71
2023/08/29 03:48:53;;;;;;;2.92;1.40;;;;;;;15.84;100.00;100113.94;5222690;28;20119;-70
2023/08/29 03:51:23;;;;;;;2.22;1.05;;;;;;;15.90;100.00;100109.09;5224038;28;20489;-72
2023/08/29 03:53:54;;;;;;;3.15;1.30;;;;;;;15.85;100.00;100105.09;5222769;28;20020;-71
2023/08/29 03:56:24;;;;;;;2.53;1.25;;;;;;;15.78;100.00;100107.28;5219779;28;20175;-72
2023/08/29 03:58:54;;;;;;;2.53;1.23;;;;;;;15.76;100.00;100100.41;5216779;28;20024;-71
2023/08/29 04:01:26;;;;;;;2.28;1.40;;;;;;;15.79;100.00;100101.06;5223260;28;20047;-72
2023/08/29 04:03:56;;;;;;;4.13;1.10;;;;;;;15.73;100.00;100095.31;5216337;28;20394;-72
2023/08/29 04:06:27;;;;;;;2.45;1.30;;;;;;;15.75;100.00;100086.38;5214581;28;20021;-71
2023/08/29 04:08:57;;;;;;;2.58;1.30;;;;;;;15.63;100.00;100086.31;5217849;28;20036;-71
2023/08/29 04:11:27;;;;;;;4.38;1.15;;;;;;;15.58;100.00;100077.84;5217420;28;20031;-72
2023/08/29 04:13:59;;;;;;;3.83;1.25;;;;;;;15.74;100.00;100079.41;5215122;28;20390;-72
2023/08/29 04:16:29;;;;;;;2.97;1.27;;;;;;;15.69;100.00;100073.59;5222523;28;20040;-72
2023/08/29 04:19:00;;;;;;;4.00;1.13;;;;;;;15.73;100.00;100074.25;5223808;28;20474;-72
2023/08/29 04:21:30;;;;;;;2.38;1.45;;;;;;;15.71;100.00;100071.69;5223067;28;20043;-71
2023/08/29 04:24:00;;;;;;;2.72;1.20;;;;;;;15.61;100.00;100070.63;5221005;28;20032;-72
2023/08/29 04:26:30;;;;;;;2.53;1.10;;;;;;;15.63;100.00;100068.72;5223297;28;20024;-71
2023/08/29 04:29:01;;;;;;;1.83;1.20;;;;;;;15.58;100.00;100068.19;5221710;28;20025;-71
2023/08/29 04:31:31;;;;;;;4.25;1.50;;;;;;;15.65;100.00;100077.38;5225341;28;20052;-71
2023/08/29 04:34:02;;;;;;;2.25;1.20;;;;;;;15.57;100.00;100086.72;5219699;28;20534;-72
2023/08/29 04:36:32;;;;;;;3.00;1.40;;;;;;;15.47;100.00;100078.53;5220877;28;20025;-71
2023/08/29 04:39:02;;;;;;;4.78;1.50;;;;;;;15.36;100.00;100086.25;5225893;28;20087;-72
2023/08/29 04:41:33;;;;;;;5.57;1.52;;;;;;;15.35;100.00;100081.94;5219813;28;20067;-72
2023/08/29 04:44:03;;;;;;;2.00;1.30;;;;;;;15.43;100.00;100079.69;5222814;28;20122;-72
2023/08/29 04:46:33;;;;;;;2.58;1.50;;;;;;;15.44;100.00;100086.66;5218968;28;20124;-72
2023/08/29 04:49:04;;;;;;;3.00;1.30;;;;;;;15.55;100.00;100086.78;5223142;28;20446;-70
2023/08/29 04:51:35;;;;;;;3.50;1.50;;;;;;;15.55;100.00;100085.97;5221157;28;20037;-72
2023/08/29 04:54:05;;;;;;;3.00;1.50;;;;;;;15.61;100.00;100094.31;5226779;28;20029;-71
2023/08/29 04:56:35;;;;;;;2.72;1.30;;;;;;;15.60;100.00;100100.53;5217896;28;20031;-72
2023/08/29 04:59:06;;;;;;;2.33;1.48;;;;;;;15.58;100.00;100101.56;5215984;28;20021;-71
2023/08/29 05:01:36;;;;;;;3.53;1.50;;;;;;;15.50;100.00;100103.84;5218007;28;20023;-72
2023/08/29 05:04:08;;;;;;;2.85;1.67;;;;;;;15.51;100.00;100100.28;5222899;28;21002;-71
2023/08/29 05:06:38;;;;;;;5.80;1.50;;;;;;;15.65;100.00;100103.72;5213053;28;20077;-72
2023/08/29 05:09:09;;;;;;;3.83;1.45;;;;;;;15.58;100.00;100097.16;5220582;28;20056;-71
2023/08/29 05:11:39;;;;;;;5.10;1.77;;;;;;;15.67;100.00;100108.91;5225592;28;20032;-72
2023/08/29 05:14:10;;;;;;;3.80;1.48;;;;;;;15.52;100.00;100117.78;5214541;28;20110;-72
2023/08/29 05:16:40;;;;;;;4.65;1.63;;;;;;;15.55;100.00;100120.22;5211515;28;20416;-72
2023/08/29 05:19:10;;;;;;;2.05;1.20;;;;;;;15.59;100.00;100132.22;5216344;28;20075;-72
2023/08/29 05:21:41;;;;;;;4.03;1.60;;;;;;;15.56;100.00;100135.91;5228618;28;20025;-72
2023/08/29 05:24:11;;;;;;;3.97;1.50;;;;;;;15.67;100.00;100132.63;5223325;28;20132;-71
2023/08/29 05:26:41;;;;;;;3.00;1.77;;;;;;;15.97;100.00;100128.00;5228507;28;20197;-72
2023/08/29 05:29:12;;;;;;;3.47;1.60;;;;;;;16.03;100.00;100125.81;5225245;28;20033;-72
2023/08/29 05:31:42;;;;;;;2.70;1.52;;;;;;;16.19;100.00;100133.59;5225667;28;20025;-72
2023/08/29 05:34:12;;;;;;;4.75;1.77;;;;;;;16.20;100.00;100128.19;5227299;28;20117;-72
2023/08/29 05:36:43;;;;;;;2.85;1.48;;;;;;;16.11;100.00;100123.53;5224886;28;20542;-72
2023/08/29 05:39:13;;;;;;;2.40;1.48;;;;;;;16.24;100.00;100121.78;5225978;28;20021;-72
2023/08/29 05:41:44;;;;;;;3.55;1.70;;;;;;;16.11;100.00;100112.13;5225744;28;20035;-71
2023/08/29 05:44:14;;;;;;;2.58;1.40;;;;;;;16.11;100.00;100107.72;5225331;28;20124;-72
2023/08/29 05:46:45;;;;;;;2.15;1.50;;;;;;;16.23;100.00;100111.34;5226937;28;20558;-72
2023/08/29 05:49:15;;;;;;;4.10;1.60;;;;;;;16.19;100.00;100110.69;5224206;28;20033;-72
2023/08/29 05:51:45;;;;;;;4.20;1.65;;;;;;;16.18;100.00;100108.16;5225727;28;20026;-72
2023/08/29 05:54:15;;;;;;;3.60;1.65;;;;;;;16.11;100.00;100105.09;5215419;28;20589;-72
2023/08/29 05:56:46;;;;;;;2.50;1.50;;;;;;;16.05;100.00;100096.72;5223612;28;20096;-72
2023/08/29 05:59:16;;;;;;;4.35;1.50;;;;;;;16.03;100.00;100096.81;5226865;28;20029;-71
2023/08/29 06:01:47;;;;;;;3.53;1.70;;;;;;;16.24;100.00;100098.03;5226509;28;20028;-72
2023/08/29 06:04:17;;;;;;;2.80;1.60;;;;;;;16.25;100.00;100105.00;5223333;28;20037;-72
2023/08/29 06:06:49;;;;;;;6.65;1.80;;;;;;;16.43;100.00;100101.19;5224814;28;20111;-70
2023/08/29 06:09:19;;;;;;;6.10;1.80;;;;;;;16.28;100.00;100098.69;5230801;28;20028;-72
2023/08/29 06:11:49;;;;;;;6.22;1.60;;;;;;;16.43;100.00;100102.97;5229101;28;20063;-71
2023/08/29 06:14:20;;;;;;;4.93;1.70;;;;;;;16.04;100.00;100106.41;5224498;28;20025;-72
2023/08/29 06:16:50;;;;;;;4.95;1.50;;;;;;;16.17;100.00;100098.53;5228886;28;20032;-72
2023/08/29 06:19:21;;;;;;;3.63;1.63;;;;;;;16.25;100.00;100094.44;5225272;28;20389;-71
2023/08/29 06:21:51;;;;;;;2.90;1.52;;;;;;;16.21;100.00;100090.34;5228143;28;20421;-72
2023/08/29 06:24:21;;;;;;;3.03;1.55;;;;;;;16.22;100.00;100089.38;5226284;28;20140;-72
2023/08/29 06:26:52;;;;;;;4.90;1.73;;;;;;;16.29;100.00;100082.78;5227776;28;20367;-72
2023/08/29 06:29:22;;;;;;;3.13;1.48;;;;;;;16.31;100.00;100083.50;5222984;28;20473;-72
2023/08/29 06:31:52;;;;;;;3.45;1.80;;;;;;;16.29;100.00;100081.91;5223804;28;20397;-72
2023/08/29 06:34:23;;;;;;;3.08;1.48;;;;;;;16.18;100.00;100085.25;5224226;28;20024;-72
2023/08/29 06:36:53;;;;;;;3.17;1.60;;;;;;;16.29;100.00;100077.50;5225408;28;20119;-72
2023/08/29 06:39:24;;;;;;;2.60;1.40;;;;;;;16.27;100.00;100083.81;5221243;28;20031;-72
2023/08/29 06:41:55;;;;;;;4.57;1.48;;;;;;;16.18;100.00;100087.91;5222004;28;20406;-71
2023/08/29 06:44:25;;;;;;;4.95;1.60;;;;;;;16.28;100.00;100096.91;5226535;28;20037;-71
2023/08/29 06:46:56;;;;;;;5.45;1.80;;;;;;;16.38;100.00;100091.91;5229068;28;20021;-72
2023/08/29 06:49:26;;;;;;;4.72;1.90;;;;;;;16.37;100.00;100093.69;5226547;28;20048;-72
2023/08/29 06:51:57;;;;;;;5.13;2.17;;;;;;;16.29;100.00;100106.50;5227389;28;20067;-71
2023/08/29 06:54:28;;;;;;;7.20;1.70;;;;;;;16.26;100.00;100096.16;5232992;28;20474;-72
2023/08/29 06:56:58;;;;;;;6.28;1.80;;;;;;;16.31;100.00;100099.34;5227747;28;20406;-72
2023/08/29 06:59:28;;;;;;;3.50;1.80;;;;;;;16.35;100.00;100108.75;5227532;28;20039;-72
2023/08/29 07:01:59;;;;;;;3.88;1.90;;;;;;;16.30;100.00;100108.19;5228805;28;20492;-71
2023/08/29 07:04:30;;;;;;;4.57;1.77;;;;;;;16.35;100.00;100116.69;5229641;28;20032;-72
2023/08/29 07:07:00;;;;;;;3.70;1.73;;;;;;;16.33;100.00;100115.03;5229816;28;20028;-72
2023/08/29 07:09:30;;;;;;;3.75;2.00;;;;;;;16.36;100.00;100118.38;5224183;28;20049;-72
2023/08/29 07:12:00;;;;;;;4.65;1.65;;;;;;;16.52;100.00;100119.03;5254807;22;20063;-74
2023/08/29 07:14:31;;;;;;;4.95;1.52;;;;;;;16.43;100.00;100119.66;5243637;28;20077;-77
2023/08/29 07:17:01;;;;;;;5.80;1.80;;;;;;;16.54;100.00;100111.03;5250183;28;20469;-77
2023/08/29 07:19:31;;;;;;;4.78;2.50;;;;;;;16.70;100.00;100114.31;5249369;28;20401;-77
2023/08/29 07:22:02;;;;;;;3.65;1.92;;;;;;;16.59;100.00;100124.75;5245137;28;20032;-76
2023/08/29 07:24:33;;;;;;;5.68;2.15;;;;;;;16.56;100.00;100125.78;5234509;28;20498;-77
2023/08/29 07:27:04;;;;;;;5.30;2.20;;;;;;;16.47;100.00;100121.16;5230851;28;20043;-74
2023/08/29 07:29:34;;;;;;;10.23;2.95;;;;;;;16.66;100.00;100120.75;5233925;28;20115;-77
2023/08/29 07:32:05;;;;;;;4.70;2.00;;;;;;;16.64;100.00;100126.13;5231175;28;20119;-75
2023/08/29 07:34:36;;;;;;;4.97;2.05;;;;;;;16.72;100.00;100126.44;5229876;28;20032;-77
2023/08/29 07:37:06;;;;;;;4.72;2.17;;;;;;;16.72;100.00;100126.44;5231968;28;20032;-74
2023/08/29 07:39:36;;;;;;;4.57;2.03;;;;;;;16.42;100.00;100138.22;5232300;28;20190;-76
2023/08/29 07:42:07;;;;;;;6.38;2.75;;;;;;;16.30;100.00;100139.84;5230744;28;20429;-73
2023/08/29 07:44:37;;;;;;;4.03;2.20;;;;;;;16.56;100.00;100149.53;5234379;28;20033;-77
2023/08/29 07:47:08;;;;;;;5.53;2.13;;;;;;;16.35;100.00;100153.59;5232143;28;20043;-77
2023/08/29 07:49:38;;;;;;;7.60;2.17;;;;;;;16.68;100.00;100148.72;5232830;28;20528;-76
2023/08/29 07:52:09;;;;;;;5.30;1.85;;;;;;;16.84;100.00;100144.09;5229937;28;20352;-77
2023/08/29 07:54:39;;;;;;;4.60;2.00;;;;;;;16.99;100.00;100146.53;5231971;28;20559;-78
2023/08/29 07:57:10;;;;;;;4.38;2.08;;;;;;;16.99;100.00;100145.72;5226949;28;20070;-74
2023/08/29 07:59:40;;;;;;;4.28;1.90;;;;;;;17.08;100.00;100147.69;5228289;28;20040;-77
2023/08/29 08:02:10;;;;;;;7.05;2.33;;;;;;;17.18;100.00;100154.88;5229459;28;20021;-77
2023/08/29 08:04:40;;;;;;;4.10;2.08;;;;;;;17.18;100.00;100157.53;5226251;28;20029;-78
2023/08/29 08:07:11;;;;;;;3.97;2.10;;;;;;;17.39;100.00;100155.22;5227667;28;20064;-77
2023/08/29 08:09:42;;;;;;;5.93;2.30;;;;;;;17.43;99.79;100156.69;5228719;28;20028;-78
2023/08/29 08:12:12;;;;;;;4.28;2.10;;;;;;;17.58;99.87;100161.75;5228873;28;20029;-77
2023/08/29 08:14:42;;;;;;;7.38;1.90;;;;;;;17.41;100.00;100163.88;5232451;28;20024;-77
2023/08/29 08:17:12;;;;;;;4.57;1.80;;;;;;;17.34;98.75;100163.47;5236999;28;20028;-74
2023/08/29 08:19:43;;;;;;;3.95;2.13;;;;;;;17.25;100.00;100165.88;5239729;28;20039;-77
2023/08/29 08:22:13;;;;;;;3.05;1.58;;;;;;;17.30;100.00;100158.50;5233053;28;20555;-76
2023/08/29 08:24:44;;;;;;;5.38;2.10;;;;;;;17.25;100.00;100165.88;5235861;28;20032;-74
2023/08/29 08:27:14;;;;;;;4.63;2.08;;;;;;;17.59;99.60;100158.16;5238602;28;20024;-75
2023/08/29 08:29:45;;;;;;;4.97;1.90;;;;;;;17.56;97.34;100162.81;5237112;28;20123;-75
2023/08/29 08:32:15;;;;;;;4.45;1.90;;;;;;;17.67;99.91;100165.56;5234062;28;20036;-74
2023/08/29 08:34:45;;;;;;;4.28;1.95;;;;;;;17.86;98.52;100172.03;5238425;28;20375;-74
2023/08/29 08:37:15;;;;;;;5.40;1.80;;;;;;;17.99;97.91;100164.09;5238079;28;20111;-75
2023/08/29 08:39:46;;;;;;;5.15;1.70;;;;;;;18.08;96.89;100172.22;5233220;28;20501;-75
2023/08/29 08:42:18;;;;;;;3.50;2.05;;;;;;;18.00;97.68;100171.91;5235299;28;20028;-75
2023/08/29 08:44:49;;;;;;;5.47;1.95;;;;;;;18.27;96.65;100182.28;5234698;28;20024;-73
2023/08/29 08:47:19;;;;;;;5.05;2.20;;;;;;;18.31;95.93;100175.88;5235791;28;20378;-75
2023/08/29 08:49:50;;;;;;;6.40;2.30;;;;;;;18.48;94.16;100183.41;5230726;28;20394;-74
2023/08/29 08:52:20;;;;;;;4.78;2.17;;;;;;;18.62;93.23;100180.56;5234781;28;20051;-75
2023/08/29 08:54:50;;;;;;;3.90;2.05;;;;;;;18.59;92.46;100178.13;5236852;28;20036;-75
2023/08/29 08:57:22;;;;;;;5.03;2.13;;;;;;;18.73;91.65;100182.28;5235669;28;20037;-75
2023/08/29 08:59:53;;;;;;;6.07;2.20;;;;;;;18.90;92.74;100186.34;5230429;28;20044;-75
2023/08/29 09:02:24;;;;;;;4.88;2.22;;;;;;;18.98;93.07;100181.28;5231578;28;20562;-75
2023/08/29 09:04:54;;;;;;;4.70;1.90;;;;;;;18.94;91.53;100175.38;5234858;28;20040;-75
2023/08/29 09:07:25;;;;;;;3.72;1.90;;;;;;;18.91;92.26;100174.78;5234238;28;20456;-75
2023/08/29 09:10:16;;;;;;;4.45;1.98;;;;;;;18.99;93.41;100173.22;5236547;28;20043;-75
2023/08/29 09:12:51;;;;;;;2.88;1.60;;;;;;;19.13;91.95;100175.66;5236216;28;20204;-74
2023/08/29 09:15:22;;;;;;;3.88;1.98;;;;;;;19.22;91.14;100179.44;5237997;28;20037;-75
2023/08/29 09:17:53;;;;;;;3.00;1.77;;;;;;;19.19;91.66;100174.38;5237596;28;20464;-75
2023/08/29 09:20:28;;;;;;;5.65;2.33;;;;;;;19.28;91.91;100173.66;5238004;28;20043;-75
2023/08/29 09:22:58;;;;;;;2.57;1.70;;;;;;;19.49;90.47;100164.03;5232864;28;20040;-74
2023/08/29 09:25:28;;;;;;;4.75;1.85;;;;;;;19.50;90.44;100169.25;5233559;28;20271;-75
2023/08/29 09:27:59;;;;;;;4.20;1.90;;;;;;;19.58;90.61;100166.81;5235303;28;20240;-75
2023/08/29 09:30:29;;;;;;;4.43;2.35;;;;;;;19.62;89.15;100175.38;5235672;28;20405;-76
2023/08/29 09:33:08;;;;;;;3.10;1.88;;;;;;;19.60;90.28;100164.88;5236334;28;20542;-75
2023/08/29 09:35:38;;;;;;;2.85;1.52;;;;;;;19.80;88.78;100168.63;5235008;28;20033;-75
2023/08/29 09:38:10;;;;;;;5.78;1.85;;;;;;;19.63;89.65;100169.94;5233792;28;20047;-72
2023/08/29 09:40:48;;;;;;;4.00;1.75;;;;;;;19.88;89.91;100158.22;5236667;28;20031;-74
2023/08/29 09:43:18;;;;;;;6.03;1.90;;;;;;;19.70;89.20;100171.16;5232517;28;20034;-72
2023/08/29 09:45:51;;;;;;;5.90;2.05;;;;;;;19.02;90.71;100177.44;5233525;28;20405;-71
2023/08/29 09:48:22;;;;;;;3.30;1.88;;;;;;;19.50;91.90;100177.19;5235860;28;20044;-74
2023/08/29 09:50:54;;;;;;;3.72;1.67;;;;;;;19.47;90.65;100174.75;5232027;28;20104;-75
2023/08/29 09:53:26;;;;;;;3.40;1.50;;;;;;;19.49;92.02;100170.19;5232624;28;20095;-74
2023/08/29 09:56:07;;;;;;;2.60;1.55;;;;;;;19.71;90.47;100172.84;5236262;28;20032;-75
2023/08/29 09:58:38;;;;;;;2.70;1.70;;;;;;;19.84;89.56;100170.91;5234288;28;20035;-75
2023/08/29 10:01:12;;;;;;;3.65;1.90;;;;;;;20.06;88.42;100176.19;5235151;28;20432;-72
2023/08/29 10:03:43;;;;;;;5.35;1.60;;;;;;;20.30;87.92;100165.41;5233900;28;20577;-75
2023/08/29 10:06:16;;;;;;;6.57;1.65;;;;;;;20.15;88.74;100161.34;5231318;28;20421;-75
2023/08/29 10:08:55;;;;;;;5.20;1.60;;;;;;;20.12;86.14;100158.94;5232741;28;20020;-75
2023/08/29 10:11:26;;;;;;;3.00;1.10;;;;;;;20.32;84.94;100153.69;5233585;28;20502;-75
2023/08/29 10:13:58;;;;;;;2.08;1.20;;;;;;;20.33;85.41;100154.53;5234297;28;20082;-75
2023/08/29 10:16:29;;;;;;;4.40;1.10;;;;;;;20.25;86.16;100152.50;5232611;28;20039;-75
2023/08/29 10:18:59;;;;;;;2.28;1.25;;;;;;;19.98;87.44;100159.19;5232522;28;20028;-73
2023/08/29 10:21:31;;;;;;;1.70;1.30;;;;;;;20.06;88.44;100151.47;5236866;28;20028;-75
2023/08/29 10:24:02;;;;;;;4.03;1.50;;;;;;;19.60;87.71;100150.78;5234719;28;20029;-74
2023/08/29 10:26:34;;;;;;;3.25;1.08;;;;;;;20.10;88.02;100148.44;5237405;28;20478;-74
2023/08/29 10:29:05;;;;;;;3.08;1.30;;;;;;;19.98;87.80;100143.25;5233834;28;20058;-75
2023/08/29 10:31:37;;;;;;;5.50;1.40;;;;;;;19.65;89.87;100149.44;5236143;28;20036;-75
2023/08/29 10:34:08;;;;;;;4.18;1.23;;;;;;;19.84;89.84;100147.03;5235865;28;20020;-74
2023/08/29 10:36:39;;;;;;;3.15;1.20;;;;;;;20.23;87.73;100141.19;5231035;28;20607;-75
2023/08/29 10:39:15;;;;;;;2.33;1.17;;;;;;;20.12;88.04;100141.19;5233634;28;20085;-71
2023/08/29 10:41:47;;;;;;;2.92;1.20;;;;;;;20.25;86.45;100141.88;5230954;28;20285;-75
2023/08/29 10:44:35;;;;;;;3.20;1.20;;;;;;;20.37;86.07;100135.56;5231028;28;20035;-75
2023/08/29 10:47:27;;;;;;;2.90;1.10;;;;;;;20.35;86.62;100136.66;5233321;28;20437;-75
2023/08/29 10:50:02;;;;;;;1.30;0.90;;;;;;;20.16;87.48;100137.31;5231943;28;20517;-74
2023/08/29 10:52:40;;;;;;;2.67;1.02;;;;;;;20.27;86.79;100133.81;5233616;28;20040;-75
2023/08/29 10:55:23;;;;;;;2.70;1.20;;;;;;;20.50;85.10;100133.56;5232106;28;20040;-74
2023/08/29 10:57:58;;;;;;;5.78;0.98;;;;;;;20.52;85.76;100126.34;5233211;28;20036;-75
2023/08/29 11:00:40;;;;;;;2.55;1.02;;;;;;;20.33;86.31;100128.81;5233461;28;20029;-75
2023/08/29 11:03:11;;;;;;;2.05;0.82;;;;;;;20.58;86.22;100127.63;5230544;28;20032;-75
2023/08/29 11:05:56;;;;;;;2.75;1.02;;;;;;;20.62;85.28;100118.44;5232806;28;20439;-74
2023/08/29 11:08:27;;;;;;;2.88;0.95;;;;;;;20.47;84.03;100115.25;5231883;28;20020;-74
2023/08/29 11:11:09;;;;;;;4.85;1.00;;;;;;;20.42;82.88;100117.44;5234491;28;20054;-74
2023/08/29 11:14:02;;;;;;;1.80;0.98;;;;;;;20.13;84.38;100121.66;5233539;28;20017;-75
2023/08/29 11:16:35;;;;;;;2.75;0.90;;;;;;;20.25;83.29;100120.66;5235198;28;20517;-75
2023/08/29 11:19:06;;;;;;;3.30;0.93;;;;;;;20.20;84.81;100122.00;5233745;28;20123;-75
2023/08/29 11:21:37;;;;;;;2.10;1.10;;;;;;;19.91;85.49;100118.19;5235148;28;20028;-75
2023/08/29 11:24:09;;;;;;;2.65;0.90;;;;;;;20.12;84.91;100113.84;5231740;28;20081;-75
2023/08/29 11:26:43;;;;;;;2.33;0.73;;;;;;;19.85;86.91;100113.38;5233214;28;20038;-75
2023/08/29 11:29:13;;;;;;;4.22;0.90;;;;;;;20.32;86.77;100115.69;5232806;28;20020;-75
2023/08/29 11:31:45;;;;;;;1.17;0.73;;;;;;;20.55;83.56;100111.94;5229048;28;20375;-75
2023/08/29 11:34:17;;;;;;;3.08;0.77;;;;;;;20.61;84.04;100106.97;5230005;28;20401;-75
2023/08/29 11:36:50;;;;;;;0.88;0.50;;;;;;;20.80;81.25;100097.34;5229332;28;20047;-71
2023/08/29 11:39:21;;;;;;;3.50;1.02;;;;;;;21.00;81.42;100098.31;5233201;28;20818;-75